EDSB/FKB METAR and TAF weather

Enter ICAO airport designator
Station Type Date Time Source
EDSB METAR 2022/07/01 00:50 UTC NOAA

EDSB 010050Z AUTO 29003KT 230V340 9999 // SCT017/// BKN024/// OVC038/// 15/13 Q1018


Station Type Date Time Source
EDSB Decoded METAR 2022/07/01 00:50 UTC NOAA

Karlsruhe, Baden Wurttemberg, Germany (EDSB) 48-46-43N 008-04-47E
Jun 30, 2022 - 08:50 PM EDT / 2022.07.01 0050 UTC
Wind: from the WNW (290 degrees) at 3 MPH (3 KT) (direction variable):0
Visibility: greater than 7 mile(s):0
Sky conditions: overcast
Temperature: 59 F (15 C)
Dew Point: 55 F (13 C)
Relative Humidity: 87%
Pressure (altimeter): 30.06 in. Hg (1018 hPa)
ob: EDSB 010050Z AUTO 29003KT 230V340 9999 // SCT017/// BKN024/// OVC038/// 15/13 Q1018
cycle: 1

Station Type Date Time Source
EDSB TAF 2022/06/30 18:31 UTC NOAA

TAF EDSB 301700Z 3018/0118 25006KT 9999 FEW040
TEMPO 3018/3021 30020G40KT 1000 +TSRA BKN008 BKN030CB PROB40
TEMPO 3021/0101 30015G25KT 4000 TSRA BKN035CB PROB30
TEMPO 0101/0108 BKN012

Example: see airport list